sensor_id;sensor_type;location;lat;lon;timestamp;temperature;humidity
6357;DHT22;3211;53.452;-2.264;2023-02-04T00:00:02;10.60;99.90
6357;DHT22;3211;53.452;-2.264;2023-02-04T00:02:30;10.50;99.90
6357;DHT22;3211;53.452;-2.264;2023-02-04T00:04:56;10.50;99.90
6357;DHT22;3211;53.452;-2.264;2023-02-04T00:07:23;10.50;99.90
6357;DHT22;3211;53.452;-2.264;2023-02-04T00:09:50;10.50;99.90
6357;DHT22;3211;53.452;-2.264;2023-02-04T00:12:19;10.50;99.90
6357;DHT22;3211;53.452;-2.264;2023-02-04T00:14:46;10.40;99.90
6357;DHT22;3211;53.452;-2.264;2023-02-04T00:17:12;10.40;99.90
6357;DHT22;3211;53.452;-2.264;2023-02-04T00:19:40;10.40;99.90
6357;DHT22;3211;53.452;-2.264;2023-02-04T00:22:07;10.40;99.90
6357;DHT22;3211;53.452;-2.264;2023-02-04T00:24:34;10.50;99.90
6357;DHT22;3211;53.452;-2.264;2023-02-04T00:27:02;10.50;99.90
6357;DHT22;3211;53.452;-2.264;2023-02-04T00:29:30;10.40;99.90
6357;DHT22;3211;53.452;-2.264;2023-02-04T00:31:57;10.40;99.90
6357;DHT22;3211;53.452;-2.264;2023-02-04T00:34:24;10.40;99.90
6357;DHT22;3211;53.452;-2.264;2023-02-04T00:36:51;10.30;99.90
6357;DHT22;3211;53.452;-2.264;2023-02-04T00:39:18;10.30;99.90
6357;DHT22;3211;53.452;-2.264;2023-02-04T00:41:45;10.30;99.90
6357;DHT22;3211;53.452;-2.264;2023-02-04T00:44:12;10.40;99.90
6357;DHT22;3211;53.452;-2.264;2023-02-04T00:46:41;10.50;99.90
6357;DHT22;3211;53.452;-2.264;2023-02-04T00:49:08;10.40;99.90
6357;DHT22;3211;53.452;-2.264;2023-02-04T00:51:36;10.40;99.90
6357;DHT22;3211;53.452;-2.264;2023-02-04T00:54:04;10.40;99.90
6357;DHT22;3211;53.452;-2.264;2023-02-04T00:56:31;10.40;99.90
6357;DHT22;3211;53.452;-2.264;2023-02-04T00:58:58;10.40;99.90
6357;DHT22;3211;53.452;-2.264;2023-02-04T01:01:25;10.40;99.90
6357;DHT22;3211;53.452;-2.264;2023-02-04T01:03:54;10.40;99.90
6357;DHT22;3211;53.452;-2.264;2023-02-04T01:06:21;10.30;99.90
6357;DHT22;3211;53.452;-2.264;2023-02-04T01:08:47;10.20;99.90
6357;DHT22;3211;53.452;-2.264;2023-02-04T01:11:15;10.20;99.90
6357;DHT22;3211;53.452;-2.264;2023-02-04T01:13:42;10.20;99.90
6357;DHT22;3211;53.452;-2.264;2023-02-04T01:16:09;10.20;99.90
6357;DHT22;3211;53.452;-2.264;2023-02-04T01:18:36;10.20;99.90
6357;DHT22;3211;53.452;-2.264;2023-02-04T01:21:04;10.30;99.90
6357;DHT22;3211;53.452;-2.264;2023-02-04T01:23:32;10.30;99.90
6357;DHT22;3211;53.452;-2.264;2023-02-04T01:25:58;10.30;99.90
6357;DHT22;3211;53.452;-2.264;2023-02-04T01:28:25;10.30;99.90
6357;DHT22;3211;53.452;-2.264;2023-02-04T01:30:52;10.30;99.90
6357;DHT22;3211;53.452;-2.264;2023-02-04T01:33:19;10.30;99.90
6357;DHT22;3211;53.452;-2.264;2023-02-04T01:35:46;10.20;99.90
6357;DHT22;3211;53.452;-2.264;2023-02-04T01:38:14;10.20;99.90
6357;DHT22;3211;53.452;-2.264;2023-02-04T01:40:42;10.20;99.90
6357;DHT22;3211;53.452;-2.264;2023-02-04T01:43:09;10.10;99.90
6357;DHT22;3211;53.452;-2.264;2023-02-04T01:45:36;10.10;99.90
6357;DHT22;3211;53.452;-2.264;2023-02-04T01:48:05;10.20;99.90
6357;DHT22;3211;53.452;-2.264;2023-02-04T01:50:32;10.10;99.90
6357;DHT22;3211;53.452;-2.264;2023-02-04T01:53:00;10.10;99.90
6357;DHT22;3211;53.452;-2.264;2023-02-04T01:55:31;10.10;99.90
6357;DHT22;3211;53.452;-2.264;2023-02-04T01:57:58;10.10;99.90
6357;DHT22;3211;53.452;-2.264;2023-02-04T02:00:27;10.10;99.90
6357;DHT22;3211;53.452;-2.264;2023-02-04T02:02:54;10.10;99.90
6357;DHT22;3211;53.452;-2.264;2023-02-04T02:05:24;10.10;99.90
6357;DHT22;3211;53.452;-2.264;2023-02-04T02:07:54;10.20;99.90
6357;DHT22;3211;53.452;-2.264;2023-02-04T02:10:23;10.20;99.90
6357;DHT22;3211;53.452;-2.264;2023-02-04T02:12:52;10.20;99.90
6357;DHT22;3211;53.452;-2.264;2023-02-04T02:15:20;10.20;99.90
6357;DHT22;3211;53.452;-2.264;2023-02-04T02:17:48;10.20;99.90
6357;DHT22;3211;53.452;-2.264;2023-02-04T02:20:17;10.20;99.90
6357;DHT22;3211;53.452;-2.264;2023-02-04T02:22:54;10.20;99.90
6357;DHT22;3211;53.452;-2.264;2023-02-04T02:25:22;10.20;99.90
6357;DHT22;3211;53.452;-2.264;2023-02-04T02:27:49;10.20;99.90
6357;DHT22;3211;53.452;-2.264;2023-02-04T02:30:17;10.20;99.90
6357;DHT22;3211;53.452;-2.264;2023-02-04T02:32:45;10.20;99.90
6357;DHT22;3211;53.452;-2.264;2023-02-04T02:35:13;10.20;99.90
6357;DHT22;3211;53.452;-2.264;2023-02-04T02:37:40;10.30;99.90
6357;DHT22;3211;53.452;-2.264;2023-02-04T02:40:09;10.20;99.90
6357;DHT22;3211;53.452;-2.264;2023-02-04T02:42:37;10.20;99.90
6357;DHT22;3211;53.452;-2.264;2023-02-04T02:45:10;10.20;99.90
6357;DHT22;3211;53.452;-2.264;2023-02-04T02:47:38;10.10;99.90
6357;DHT22;3211;53.452;-2.264;2023-02-04T02:50:05;10.10;99.90
6357;DHT22;3211;53.452;-2.264;2023-02-04T02:52:33;10.10;99.90
6357;DHT22;3211;53.452;-2.264;2023-02-04T02:54:59;10.10;99.90
6357;DHT22;3211;53.452;-2.264;2023-02-04T02:57:26;10.10;99.90
6357;DHT22;3211;53.452;-2.264;2023-02-04T02:59:55;10.10;99.90
6357;DHT22;3211;53.452;-2.264;2023-02-04T03:02:23;10.10;99.90
6357;DHT22;3211;53.452;-2.264;2023-02-04T03:04:54;10.10;99.90
6357;DHT22;3211;53.452;-2.264;2023-02-04T03:07:23;10.10;99.90
6357;DHT22;3211;53.452;-2.264;2023-02-04T03:09:50;10.10;99.90
6357;DHT22;3211;53.452;-2.264;2023-02-04T03:12:18;10.10;99.90
6357;DHT22;3211;53.452;-2.264;2023-02-04T03:14:45;10.10;99.90
6357;DHT22;3211;53.452;-2.264;2023-02-04T03:17:14;10.10;99.90
6357;DHT22;3211;53.452;-2.264;2023-02-04T03:19:41;10.10;99.90
6357;DHT22;3211;53.452;-2.264;2023-02-04T03:22:08;10.00;99.90
6357;DHT22;3211;53.452;-2.264;2023-02-04T03:24:36;10.00;99.90
6357;DHT22;3211;53.452;-2.264;2023-02-04T03:27:03;10.00;99.90
6357;DHT22;3211;53.452;-2.264;2023-02-04T03:29:30;10.00;99.90
6357;DHT22;3211;53.452;-2.264;2023-02-04T03:31:58;10.00;99.90
6357;DHT22;3211;53.452;-2.264;2023-02-04T03:34:26;10.00;99.90
6357;DHT22;3211;53.452;-2.264;2023-02-04T03:36:53;9.90;99.90
6357;DHT22;3211;53.452;-2.264;2023-02-04T03:39:20;10.00;99.90
6357;DHT22;3211;53.452;-2.264;2023-02-04T03:41:47;9.90;99.90
6357;DHT22;3211;53.452;-2.264;2023-02-04T03:44:14;9.90;99.90
6357;DHT22;3211;53.452;-2.264;2023-02-04T03:46:41;9.90;99.90
6357;DHT22;3211;53.452;-2.264;2023-02-04T03:49:08;10.00;99.90
6357;DHT22;3211;53.452;-2.264;2023-02-04T03:51:36;9.90;99.90
6357;DHT22;3211;53.452;-2.264;2023-02-04T03:54:03;9.90;99.90
6357;DHT22;3211;53.452;-2.264;2023-02-04T03:56:30;9.90;99.90
6357;DHT22;3211;53.452;-2.264;2023-02-04T03:58:57;9.90;99.90
6357;DHT22;3211;53.452;-2.264;2023-02-04T04:01:24;9.90;99.90
6357;DHT22;3211;53.452;-2.264;2023-02-04T04:03:51;9.90;99.90
6357;DHT22;3211;53.452;-2.264;2023-02-04T04:06:18;9.90;99.90
6357;DHT22;3211;53.452;-2.264;2023-02-04T04:08:46;10.00;99.90
6357;DHT22;3211;53.452;-2.264;2023-02-04T04:11:13;9.90;99.90
6357;DHT22;3211;53.452;-2.264;2023-02-04T04:13:40;10.00;99.90
6357;DHT22;3211;53.452;-2.264;2023-02-04T04:16:07;10.00;99.90
6357;DHT22;3211;53.452;-2.264;2023-02-04T04:18:34;9.90;99.90
6357;DHT22;3211;53.452;-2.264;2023-02-04T04:21:02;9.80;99.90
6357;DHT22;3211;53.452;-2.264;2023-02-04T04:23:28;9.80;99.90
6357;DHT22;3211;53.452;-2.264;2023-02-04T04:25:57;9.80;99.90
6357;DHT22;3211;53.452;-2.264;2023-02-04T04:28:24;9.80;99.90
6357;DHT22;3211;53.452;-2.264;2023-02-04T04:30:51;9.80;99.90
6357;DHT22;3211;53.452;-2.264;2023-02-04T04:33:17;9.80;99.90
6357;DHT22;3211;53.452;-2.264;2023-02-04T04:35:44;9.80;99.90
6357;DHT22;3211;53.452;-2.264;2023-02-04T04:38:11;9.80;99.90
6357;DHT22;3211;53.452;-2.264;2023-02-04T04:40:38;9.80;99.90
6357;DHT22;3211;53.452;-2.264;2023-02-04T04:43:06;9.80;99.90
6357;DHT22;3211;53.452;-2.264;2023-02-04T04:45:33;9.80;99.90
6357;DHT22;3211;53.452;-2.264;2023-02-04T04:48:00;9.80;99.90
6357;DHT22;3211;53.452;-2.264;2023-02-04T04:50:27;9.90;99.90
6357;DHT22;3211;53.452;-2.264;2023-02-04T04:52:54;9.90;99.90
6357;DHT22;3211;53.452;-2.264;2023-02-04T04:55:21;9.80;99.90
6357;DHT22;3211;53.452;-2.264;2023-02-04T04:57:48;9.80;99.90
6357;DHT22;3211;53.452;-2.264;2023-02-04T05:00:19;9.80;99.90
6357;DHT22;3211;53.452;-2.264;2023-02-04T05:02:46;9.80;99.90
6357;DHT22;3211;53.452;-2.264;2023-02-04T05:05:13;9.70;99.90
6357;DHT22;3211;53.452;-2.264;2023-02-04T05:07:40;9.80;99.90
6357;DHT22;3211;53.452;-2.264;2023-02-04T05:10:08;9.80;99.90
6357;DHT22;3211;53.452;-2.264;2023-02-04T05:12:35;9.80;99.90
6357;DHT22;3211;53.452;-2.264;2023-02-04T05:15:02;9.80;99.90
6357;DHT22;3211;53.452;-2.264;2023-02-04T05:17:30;9.80;99.90
6357;DHT22;3211;53.452;-2.264;2023-02-04T05:19:57;9.80;99.90
6357;DHT22;3211;53.452;-2.264;2023-02-04T05:22:24;9.70;99.90
6357;DHT22;3211;53.452;-2.264;2023-02-04T05:24:51;9.70;99.90
6357;DHT22;3211;53.452;-2.264;2023-02-04T05:27:18;9.70;99.90
6357;DHT22;3211;53.452;-2.264;2023-02-04T05:29:45;9.70;99.90
6357;DHT22;3211;53.452;-2.264;2023-02-04T05:32:12;9.80;99.90
6357;DHT22;3211;53.452;-2.264;2023-02-04T05:34:40;9.70;99.90
6357;DHT22;3211;53.452;-2.264;2023-02-04T05:37:07;9.70;99.90
6357;DHT22;3211;53.452;-2.264;2023-02-04T05:39:34;9.70;99.90
6357;DHT22;3211;53.452;-2.264;2023-02-04T05:42:01;9.80;99.90
6357;DHT22;3211;53.452;-2.264;2023-02-04T05:44:28;9.80;99.90
6357;DHT22;3211;53.452;-2.264;2023-02-04T05:46:55;9.80;99.90
6357;DHT22;3211;53.452;-2.264;2023-02-04T05:49:22;9.80;99.90
6357;DHT22;3211;53.452;-2.264;2023-02-04T05:51:50;9.80;99.90
6357;DHT22;3211;53.452;-2.264;2023-02-04T05:54:17;9.80;99.90
6357;DHT22;3211;53.452;-2.264;2023-02-04T05:56:45;9.80;99.90
6357;DHT22;3211;53.452;-2.264;2023-02-04T05:59:12;9.90;99.90
6357;DHT22;3211;53.452;-2.264;2023-02-04T06:01:39;9.80;99.90
6357;DHT22;3211;53.452;-2.264;2023-02-04T06:04:06;9.80;99.90
6357;DHT22;3211;53.452;-2.264;2023-02-04T06:06:33;9.80;99.90
6357;DHT22;3211;53.452;-2.264;2023-02-04T06:09:01;9.80;99.90
6357;DHT22;3211;53.452;-2.264;2023-02-04T06:11:28;9.80;99.90
6357;DHT22;3211;53.452;-2.264;2023-02-04T06:13:55;9.90;99.90
6357;DHT22;3211;53.452;-2.264;2023-02-04T06:16:22;9.90;99.90
6357;DHT22;3211;53.452;-2.264;2023-02-04T06:18:49;9.80;99.90
6357;DHT22;3211;53.452;-2.264;2023-02-04T06:21:16;9.80;99.90
6357;DHT22;3211;53.452;-2.264;2023-02-04T06:23:43;9.80;99.90
6357;DHT22;3211;53.452;-2.264;2023-02-04T06:26:11;9.90;99.90
6357;DHT22;3211;53.452;-2.264;2023-02-04T06:28:38;9.80;99.90
6357;DHT22;3211;53.452;-2.264;2023-02-04T06:31:05;9.90;99.90
6357;DHT22;3211;53.452;-2.264;2023-02-04T06:33:33;9.80;99.90
6357;DHT22;3211;53.452;-2.264;2023-02-04T06:36:00;9.90;99.90
6357;DHT22;3211;53.452;-2.264;2023-02-04T06:38:27;9.90;99.90
6357;DHT22;3211;53.452;-2.264;2023-02-04T06:40:54;9.80;99.90
6357;DHT22;3211;53.452;-2.264;2023-02-04T06:43:23;9.80;99.90
6357;DHT22;3211;53.452;-2.264;2023-02-04T06:45:52;9.80;99.90
6357;DHT22;3211;53.452;-2.264;2023-02-04T06:48:19;9.80;99.90
6357;DHT22;3211;53.452;-2.264;2023-02-04T06:50:46;9.70;99.90
6357;DHT22;3211;53.452;-2.264;2023-02-04T06:53:13;9.70;99.90
6357;DHT22;3211;53.452;-2.264;2023-02-04T06:55:40;9.70;99.90
6357;DHT22;3211;53.452;-2.264;2023-02-04T06:58:07;9.70;99.90
6357;DHT22;3211;53.452;-2.264;2023-02-04T07:00:35;9.70;99.90
6357;DHT22;3211;53.452;-2.264;2023-02-04T07:03:02;9.80;99.90
6357;DHT22;3211;53.452;-2.264;2023-02-04T07:05:31;9.60;99.90
6357;DHT22;3211;53.452;-2.264;2023-02-04T07:07:58;9.70;99.90
6357;DHT22;3211;53.452;-2.264;2023-02-04T07:10:25;9.70;99.90
6357;DHT22;3211;53.452;-2.264;2023-02-04T07:12:52;9.70;99.90
6357;DHT22;3211;53.452;-2.264;2023-02-04T07:15:19;9.70;99.90
6357;DHT22;3211;53.452;-2.264;2023-02-04T07:17:47;9.70;99.90
6357;DHT22;3211;53.452;-2.264;2023-02-04T07:20:14;9.70;99.90
6357;DHT22;3211;53.452;-2.264;2023-02-04T07:22:41;9.60;99.90
6357;DHT22;3211;53.452;-2.264;2023-02-04T07:25:09;9.60;99.90
6357;DHT22;3211;53.452;-2.264;2023-02-04T07:27:39;9.60;99.90
6357;DHT22;3211;53.452;-2.264;2023-02-04T07:30:07;9.50;99.90
6357;DHT22;3211;53.452;-2.264;2023-02-04T07:32:34;9.70;99.90
6357;DHT22;3211;53.452;-2.264;2023-02-04T07:35:03;9.70;99.90
6357;DHT22;3211;53.452;-2.264;2023-02-04T07:37:30;9.70;99.90
6357;DHT22;3211;53.452;-2.264;2023-02-04T07:39:57;9.70;99.90
6357;DHT22;3211;53.452;-2.264;2023-02-04T07:42:23;9.70;99.90
6357;DHT22;3211;53.452;-2.264;2023-02-04T07:44:50;9.70;99.90
6357;DHT22;3211;53.452;-2.264;2023-02-04T07:47:17;9.60;99.90
6357;DHT22;3211;53.452;-2.264;2023-02-04T07:49:44;9.60;99.90
6357;DHT22;3211;53.452;-2.264;2023-02-04T07:52:12;9.70;99.90
6357;DHT22;3211;53.452;-2.264;2023-02-04T07:54:39;9.70;99.90
6357;DHT22;3211;53.452;-2.264;2023-02-04T07:57:07;9.60;99.90
6357;DHT22;3211;53.452;-2.264;2023-02-04T07:59:34;9.70;99.90
6357;DHT22;3211;53.452;-2.264;2023-02-04T08:02:01;9.60;99.90
6357;DHT22;3211;53.452;-2.264;2023-02-04T08:04:28;9.70;99.90
6357;DHT22;3211;53.452;-2.264;2023-02-04T08:06:55;9.70;99.90
6357;DHT22;3211;53.452;-2.264;2023-02-04T08:09:23;9.70;99.90
6357;DHT22;3211;53.452;-2.264;2023-02-04T08:11:51;9.70;99.90
6357;DHT22;3211;53.452;-2.264;2023-02-04T08:14:18;9.60;99.90
6357;DHT22;3211;53.452;-2.264;2023-02-04T08:16:45;9.60;99.90
6357;DHT22;3211;53.452;-2.264;2023-02-04T08:19:12;9.60;99.90
6357;DHT22;3211;53.452;-2.264;2023-02-04T08:21:43;9.60;99.90
6357;DHT22;3211;53.452;-2.264;2023-02-04T08:24:10;9.60;99.90
6357;DHT22;3211;53.452;-2.264;2023-02-04T08:26:39;9.60;99.90
6357;DHT22;3211;53.452;-2.264;2023-02-04T08:29:06;9.60;99.90
6357;DHT22;3211;53.452;-2.264;2023-02-04T08:31:33;9.60;99.90
6357;DHT22;3211;53.452;-2.264;2023-02-04T08:34:01;9.60;99.90
6357;DHT22;3211;53.452;-2.264;2023-02-04T08:36:28;9.60;99.90
6357;DHT22;3211;53.452;-2.264;2023-02-04T08:38:55;9.60;99.90
6357;DHT22;3211;53.452;-2.264;2023-02-04T08:41:21;9.70;99.90
6357;DHT22;3211;53.452;-2.264;2023-02-04T08:43:50;9.70;99.90
6357;DHT22;3211;53.452;-2.264;2023-02-04T08:46:17;9.70;99.90
6357;DHT22;3211;53.452;-2.264;2023-02-04T08:48:44;9.60;99.90
6357;DHT22;3211;53.452;-2.264;2023-02-04T08:51:11;9.60;99.90
6357;DHT22;3211;53.452;-2.264;2023-02-04T08:53:38;9.60;99.90
6357;DHT22;3211;53.452;-2.264;2023-02-04T08:56:05;9.60;99.90
6357;DHT22;3211;53.452;-2.264;2023-02-04T08:58:34;9.70;99.90
6357;DHT22;3211;53.452;-2.264;2023-02-04T09:01:02;9.70;99.90
6357;DHT22;3211;53.452;-2.264;2023-02-04T09:03:31;9.70;99.90
6357;DHT22;3211;53.452;-2.264;2023-02-04T09:05:58;9.70;99.90
6357;DHT22;3211;53.452;-2.264;2023-02-04T09:08:25;9.60;99.90
6357;DHT22;3211;53.452;-2.264;2023-02-04T09:10:52;9.60;99.90
6357;DHT22;3211;53.452;-2.264;2023-02-04T09:13:19;9.60;99.90
6357;DHT22;3211;53.452;-2.264;2023-02-04T09:15:46;9.70;99.90
6357;DHT22;3211;53.452;-2.264;2023-02-04T09:18:14;9.80;99.90
6357;DHT22;3211;53.452;-2.264;2023-02-04T09:20:45;9.80;99.90
6357;DHT22;3211;53.452;-2.264;2023-02-04T09:23:12;9.80;99.90
6357;DHT22;3211;53.452;-2.264;2023-02-04T09:25:39;9.80;99.90
6357;DHT22;3211;53.452;-2.264;2023-02-04T09:28:07;9.80;99.90
6357;DHT22;3211;53.452;-2.264;2023-02-04T09:30:36;9.70;99.90
6357;DHT22;3211;53.452;-2.264;2023-02-04T09:33:03;9.80;99.90
6357;DHT22;3211;53.452;-2.264;2023-02-04T09:35:31;9.80;99.90
6357;DHT22;3211;53.452;-2.264;2023-02-04T09:37:58;9.80;99.90
6357;DHT22;3211;53.452;-2.264;2023-02-04T09:40:28;9.90;99.90
6357;DHT22;3211;53.452;-2.264;2023-02-04T09:42:56;9.90;99.90
6357;DHT22;3211;53.452;-2.264;2023-02-04T09:45:27;9.90;99.90
6357;DHT22;3211;53.452;-2.264;2023-02-04T09:47:56;10.00;99.90
6357;DHT22;3211;53.452;-2.264;2023-02-04T09:50:26;10.00;99.90
6357;DHT22;3211;53.452;-2.264;2023-02-04T09:52:57;10.00;99.90
6357;DHT22;3211;53.452;-2.264;2023-02-04T09:55:31;9.90;99.90
6357;DHT22;3211;53.452;-2.264;2023-02-04T09:57:59;9.90;99.90
6357;DHT22;3211;53.452;-2.264;2023-02-04T10:00:27;9.90;99.90
6357;DHT22;3211;53.452;-2.264;2023-02-04T10:02:56;9.90;99.90
6357;DHT22;3211;53.452;-2.264;2023-02-04T10:05:28;9.90;99.90
6357;DHT22;3211;53.452;-2.264;2023-02-04T10:07:57;9.90;99.90
6357;DHT22;3211;53.452;-2.264;2023-02-04T10:10:26;9.90;99.90
6357;DHT22;3211;53.452;-2.264;2023-02-04T10:12:56;10.00;99.90
6357;DHT22;3211;53.452;-2.264;2023-02-04T10:15:23;10.00;99.90
6357;DHT22;3211;53.452;-2.264;2023-02-04T10:17:53;10.00;99.90
6357;DHT22;3211;53.452;-2.264;2023-02-04T10:20:22;9.90;99.90
6357;DHT22;3211;53.452;-2.264;2023-02-04T10:22:52;10.00;99.90
6357;DHT22;3211;53.452;-2.264;2023-02-04T10:25:22;10.00;99.90
6357;DHT22;3211;53.452;-2.264;2023-02-04T10:27:51;10.00;99.90
6357;DHT22;3211;53.452;-2.264;2023-02-04T10:30:21;10.00;99.90
6357;DHT22;3211;53.452;-2.264;2023-02-04T10:32:48;10.10;99.90
6357;DHT22;3211;53.452;-2.264;2023-02-04T10:35:17;10.00;99.90
6357;DHT22;3211;53.452;-2.264;2023-02-04T10:37:45;10.00;99.90
6357;DHT22;3211;53.452;-2.264;2023-02-04T10:40:28;10.00;99.90
6357;DHT22;3211;53.452;-2.264;2023-02-04T10:42:55;10.00;99.90
6357;DHT22;3211;53.452;-2.264;2023-02-04T10:45:23;10.10;99.90
6357;DHT22;3211;53.452;-2.264;2023-02-04T10:47:51;10.10;99.90
6357;DHT22;3211;53.452;-2.264;2023-02-04T10:50:20;10.10;99.90
6357;DHT22;3211;53.452;-2.264;2023-02-04T10:52:50;10.10;99.90
6357;DHT22;3211;53.452;-2.264;2023-02-04T10:55:22;10.10;99.90
6357;DHT22;3211;53.452;-2.264;2023-02-04T10:57:51;10.10;99.90
6357;DHT22;3211;53.452;-2.264;2023-02-04T11:00:20;10.10;99.90
6357;DHT22;3211;53.452;-2.264;2023-02-04T11:02:56;10.10;99.90
6357;DHT22;3211;53.452;-2.264;2023-02-04T11:05:29;10.10;99.90
6357;DHT22;3211;53.452;-2.264;2023-02-04T11:07:56;10.10;99.90
6357;DHT22;3211;53.452;-2.264;2023-02-04T11:10:27;10.10;99.90
6357;DHT22;3211;53.452;-2.264;2023-02-04T11:13:05;10.10;99.90
6357;DHT22;3211;53.452;-2.264;2023-02-04T11:15:42;10.10;99.90
6357;DHT22;3211;53.452;-2.264;2023-02-04T11:18:11;10.00;99.90
6357;DHT22;3211;53.452;-2.264;2023-02-04T11:20:39;10.00;99.90
6357;DHT22;3211;53.452;-2.264;2023-02-04T11:26:13;9.90;99.90
6357;DHT22;3211;53.452;-2.264;2023-02-04T11:29:06;9.90;99.90
6357;DHT22;3211;53.452;-2.264;2023-02-04T11:31:54;9.90;99.90
6357;DHT22;3211;53.452;-2.264;2023-02-04T11:34:28;9.90;99.90
6357;DHT22;3211;53.452;-2.264;2023-02-04T11:37:04;9.80;99.90
6357;DHT22;3211;53.452;-2.264;2023-02-04T11:39:36;9.80;99.90
6357;DHT22;3211;53.452;-2.264;2023-02-04T11:42:04;9.70;99.90
6357;DHT22;3211;53.452;-2.264;2023-02-04T11:44:32;9.70;99.90
6357;DHT22;3211;53.452;-2.264;2023-02-04T11:47:01;9.80;99.90
6357;DHT22;3211;53.452;-2.264;2023-02-04T11:49:35;9.70;99.90
6357;DHT22;3211;53.452;-2.264;2023-02-04T11:52:03;9.80;99.90
6357;DHT22;3211;53.452;-2.264;2023-02-04T11:54:33;9.80;99.90
6357;DHT22;3211;53.452;-2.264;2023-02-04T11:57:01;9.90;99.90
6357;DHT22;3211;53.452;-2.264;2023-02-04T11:59:28;9.80;99.90
6357;DHT22;3211;53.452;-2.264;2023-02-04T12:02:05;9.90;99.90
6357;DHT22;3211;53.452;-2.264;2023-02-04T12:04:32;9.90;99.90
6357;DHT22;3211;53.452;-2.264;2023-02-04T12:07:01;9.80;99.90
6357;DHT22;3211;53.452;-2.264;2023-02-04T12:09:30;9.80;99.90
6357;DHT22;3211;53.452;-2.264;2023-02-04T12:11:59;9.70;99.90
6357;DHT22;3211;53.452;-2.264;2023-02-04T12:14:31;9.80;99.90
6357;DHT22;3211;53.452;-2.264;2023-02-04T12:16:58;9.80;99.90
6357;DHT22;3211;53.452;-2.264;2023-02-04T12:19:27;9.70;99.90
6357;DHT22;3211;53.452;-2.264;2023-02-04T12:21:54;9.70;99.90
6357;DHT22;3211;53.452;-2.264;2023-02-04T12:24:21;9.70;99.90
6357;DHT22;3211;53.452;-2.264;2023-02-04T12:26:48;9.70;99.90
6357;DHT22;3211;53.452;-2.264;2023-02-04T12:29:16;9.80;99.90
6357;DHT22;3211;53.452;-2.264;2023-02-04T12:31:43;9.80;99.90
6357;DHT22;3211;53.452;-2.264;2023-02-04T12:34:10;9.70;99.90
6357;DHT22;3211;53.452;-2.264;2023-02-04T12:36:38;9.80;99.90
6357;DHT22;3211;53.452;-2.264;2023-02-04T12:39:05;9.90;99.90
6357;DHT22;3211;53.452;-2.264;2023-02-04T12:41:32;9.90;99.90
6357;DHT22;3211;53.452;-2.264;2023-02-04T12:43:59;9.90;99.90
6357;DHT22;3211;53.452;-2.264;2023-02-04T12:46:27;9.90;99.90
6357;DHT22;3211;53.452;-2.264;2023-02-04T12:48:54;9.90;99.90
6357;DHT22;3211;53.452;-2.264;2023-02-04T12:51:21;9.90;99.90
6357;DHT22;3211;53.452;-2.264;2023-02-04T12:53:49;9.90;99.90
6357;DHT22;3211;53.452;-2.264;2023-02-04T12:56:17;10.00;99.90
6357;DHT22;3211;53.452;-2.264;2023-02-04T12:58:45;10.10;99.90
6357;DHT22;3211;53.452;-2.264;2023-02-04T13:01:12;10.00;99.90
6357;DHT22;3211;53.452;-2.264;2023-02-04T13:03:38;10.00;99.90
6357;DHT22;3211;53.452;-2.264;2023-02-04T13:06:05;10.00;99.90
6357;DHT22;3211;53.452;-2.264;2023-02-04T13:08:32;10.10;99.90
6357;DHT22;3211;53.452;-2.264;2023-02-04T13:11:01;10.20;99.90
6357;DHT22;3211;53.452;-2.264;2023-02-04T13:13:28;10.20;99.90
6357;DHT22;3211;53.452;-2.264;2023-02-04T13:15:54;10.10;99.90
6357;DHT22;3211;53.452;-2.264;2023-02-04T13:18:21;10.10;99.90
6357;DHT22;3211;53.452;-2.264;2023-02-04T13:20:48;10.10;99.90
6357;DHT22;3211;53.452;-2.264;2023-02-04T13:23:15;10.10;99.90
6357;DHT22;3211;53.452;-2.264;2023-02-04T13:25:42;10.00;99.90
6357;DHT22;3211;53.452;-2.264;2023-02-04T13:28:11;10.00;99.90
6357;DHT22;3211;53.452;-2.264;2023-02-04T13:30:38;10.10;99.90
6357;DHT22;3211;53.452;-2.264;2023-02-04T13:33:05;10.00;99.90
6357;DHT22;3211;53.452;-2.264;2023-02-04T13:35:32;10.10;99.90
6357;DHT22;3211;53.452;-2.264;2023-02-04T13:37:59;10.10;99.90
6357;DHT22;3211;53.452;-2.264;2023-02-04T13:40:26;10.10;99.90
6357;DHT22;3211;53.452;-2.264;2023-02-04T13:42:52;10.00;99.90
6357;DHT22;3211;53.452;-2.264;2023-02-04T13:45:21;10.00;99.90
6357;DHT22;3211;53.452;-2.264;2023-02-04T13:47:48;10.00;99.90
6357;DHT22;3211;53.452;-2.264;2023-02-04T13:50:15;10.10;99.90
6357;DHT22;3211;53.452;-2.264;2023-02-04T13:52:42;10.10;99.90
6357;DHT22;3211;53.452;-2.264;2023-02-04T13:55:09;10.00;99.90
6357;DHT22;3211;53.452;-2.264;2023-02-04T13:57:36;10.10;99.90
6357;DHT22;3211;53.452;-2.264;2023-02-04T14:00:03;10.20;99.90
6357;DHT22;3211;53.452;-2.264;2023-02-04T14:02:33;10.10;99.90
6357;DHT22;3211;53.452;-2.264;2023-02-04T14:05:00;10.10;99.90
6357;DHT22;3211;53.452;-2.264;2023-02-04T14:07:26;10.10;99.90
6357;DHT22;3211;53.452;-2.264;2023-02-04T14:09:55;10.10;99.90
6357;DHT22;3211;53.452;-2.264;2023-02-04T14:12:22;10.10;99.90
6357;DHT22;3211;53.452;-2.264;2023-02-04T14:14:48;10.10;99.90
6357;DHT22;3211;53.452;-2.264;2023-02-04T14:17:15;10.10;99.90
6357;DHT22;3211;53.452;-2.264;2023-02-04T14:19:44;10.00;99.90
6357;DHT22;3211;53.452;-2.264;2023-02-04T14:22:11;10.10;99.90
6357;DHT22;3211;53.452;-2.264;2023-02-04T14:24:38;10.10;99.90
6357;DHT22;3211;53.452;-2.264;2023-02-04T14:27:07;10.10;99.90
6357;DHT22;3211;53.452;-2.264;2023-02-04T14:29:34;10.20;99.90
6357;DHT22;3211;53.452;-2.264;2023-02-04T14:32:01;10.20;99.90
6357;DHT22;3211;53.452;-2.264;2023-02-04T14:34:28;10.30;99.90
6357;DHT22;3211;53.452;-2.264;2023-02-04T14:36:56;10.20;99.90
6357;DHT22;3211;53.452;-2.264;2023-02-04T14:39:23;10.20;99.90
6357;DHT22;3211;53.452;-2.264;2023-02-04T14:41:50;10.20;99.90
6357;DHT22;3211;53.452;-2.264;2023-02-04T14:44:17;10.10;99.90
6357;DHT22;3211;53.452;-2.264;2023-02-04T14:46:45;10.10;99.90
6357;DHT22;3211;53.452;-2.264;2023-02-04T14:49:13;10.00;99.90
6357;DHT22;3211;53.452;-2.264;2023-02-04T14:51:40;9.80;99.90
6357;DHT22;3211;53.452;-2.264;2023-02-04T14:54:08;9.70;99.90
6357;DHT22;3211;53.452;-2.264;2023-02-04T14:56:35;9.70;99.90
6357;DHT22;3211;53.452;-2.264;2023-02-04T14:59:02;9.60;99.90
6357;DHT22;3211;53.452;-2.264;2023-02-04T15:01:29;9.60;99.90
6357;DHT22;3211;53.452;-2.264;2023-02-04T15:03:56;9.60;99.90
6357;DHT22;3211;53.452;-2.264;2023-02-04T15:06:23;9.60;99.90
6357;DHT22;3211;53.452;-2.264;2023-02-04T15:08:50;9.60;99.90
6357;DHT22;3211;53.452;-2.264;2023-02-04T15:11:18;9.60;99.90
6357;DHT22;3211;53.452;-2.264;2023-02-04T15:13:45;9.50;99.90
6357;DHT22;3211;53.452;-2.264;2023-02-04T15:16:12;9.50;99.90
6357;DHT22;3211;53.452;-2.264;2023-02-04T15:18:39;9.50;99.90
6357;DHT22;3211;53.452;-2.264;2023-02-04T15:21:06;9.50;99.90
6357;DHT22;3211;53.452;-2.264;2023-02-04T15:23:33;9.50;99.90
6357;DHT22;3211;53.452;-2.264;2023-02-04T15:26:00;9.50;99.90
6357;DHT22;3211;53.452;-2.264;2023-02-04T15:28:29;9.60;99.90
6357;DHT22;3211;53.452;-2.264;2023-02-04T15:30:56;9.60;99.90
6357;DHT22;3211;53.452;-2.264;2023-02-04T15:33:23;9.60;99.90
6357;DHT22;3211;53.452;-2.264;2023-02-04T15:35:50;9.60;99.90
6357;DHT22;3211;53.452;-2.264;2023-02-04T15:38:16;9.60;99.90
6357;DHT22;3211;53.452;-2.264;2023-02-04T15:40:43;9.60;99.90
6357;DHT22;3211;53.452;-2.264;2023-02-04T15:43:10;9.60;99.90
6357;DHT22;3211;53.452;-2.264;2023-02-04T15:45:39;9.60;99.90
6357;DHT22;3211;53.452;-2.264;2023-02-04T15:48:08;9.60;99.90
6357;DHT22;3211;53.452;-2.264;2023-02-04T15:50:35;9.60;99.90
6357;DHT22;3211;53.452;-2.264;2023-02-04T15:53:02;9.60;99.90
6357;DHT22;3211;53.452;-2.264;2023-02-04T15:55:29;9.60;99.90
6357;DHT22;3211;53.452;-2.264;2023-02-04T15:57:56;9.60;99.90
6357;DHT22;3211;53.452;-2.264;2023-02-04T16:00:23;9.60;99.90